Weather observations for the past three days for
St Marys County Airport
Imperial (Metric)
Date Time (edt) Wind (mph) Vis. (mi.) Weather Sky Cond. Temperature (ºF) Relative Humidity Wind Chill (°F) Heat Index (°F) Pressure Precipitation (in)
Air Dwpt 6 hour altimeter (in) sea level (mb) 1 hr 3 hr 6 hr
Max. Min.
04 20:55 Calm 10.00 Partly Cloudy FEW150 SCT250 75.7 73.8 94% 75 29.89 0.0
04 20:35 W 6 10.00 Fair CLR 75.2 73.8 95% 74 29.9 0.0
04 20:15 W 5 10.00 A Few Clouds FEW250 75.4 74.8 98% 73 29.89 0.0
04 19:55 W 5 10.00 Fair CLR 75.2 74.7 90.3 73.6 98% 73 29.88 0.0
04 19:35 Calm 10.00 Fair CLR 74.7 74.3 99% 29.87 0.0
04 19:15 Calm 9.00 Fair CLR 74.3 74.3 100% 29.86 0.0
04 18:55 Calm 9.00 Fair CLR 73.9 73.8 99% 29.88 0.0
04 18:35 Calm 7.00 Light Rain FEW140 77 74.7 93% 78 29.89 0.0
04 18:15 W 5 7.00 Light Rain FEW050 SCT140 80.4 74.3 82% 85 29.91 0.0
04 17:55 W 3 9.00 Mostly Cloudy SCT055 BKN220 BKN250 82 77.9 87% 91 29.91 0.0
04 17:35 Calm 9.00 Partly Cloudy SCT230 82.8 77.5 84% 92 29.91 0.0
04 17:15 Calm 9.00 A Few Clouds FEW320 82.9 78.1 85% 93 29.89 0.0
04 16:55 W 3 10.00 A Few Clouds FEW360 85.3 76.1 74% 95 29.89 0.0
04 16:35 Calm 9.00 A Few Clouds FEW320 85.6 75.4 72% 95 29.9 0.0
04 16:15 W 3 10.00 Fair CLR 86.7 75 68% 96 29.89 0.0
04 15:55 W 7 10.00 Fair CLR 89.1 73.4 60% 97 29.91 0.0
04 15:35 W 6 10.00 Fair CLR 89.6 74.3 61% 99 29.9 0.0
04 15:15 Vrbl 3 10.00 Fair CLR 89.8 73.8 59% 99 29.91 0.0
04 14:55 W 3 10.00 Fair CLR 89.4 73.9 60% 99 29.92 0.0
04 14:35 Vrbl 3 10.00 Fair CLR 88.7 73.4 61% 97 29.92 0.0
04 14:15 Vrbl 3 10.00 Fair CLR 88.3 73.9 62% 97 29.93 0.0
04 13:55 Vrbl 7 10.00 Fair CLR 87.8 74.1 88.3 74.5 64% 97 29.94 0.0
04 13:35 Vrbl 3 10.00 Fair CLR 87.3 74.7 66% 96 29.94 0.0
04 13:15 Vrbl 5 10.00 Fair CLR 87.4 74.8 66% 97 29.94 0.0
04 12:55 Calm 10.00 Fair CLR 87.4 75.4 67% 97 29.94 0.0
04 12:35 SW 5 10.00 Fair CLR 86.7 75.2 69% 96 29.95 0.0
04 12:15 W 3 10.00 Fair CLR 86.5 75.2 69% 96 29.95 0.0
04 11:35 W 6 10.00 Fair CLR 84.9 75.2 73% 94 29.96 0.0
04 11:15 Vrbl 5 10.00 Fair CLR 84.2 74.7 73% 92 29.96 0.0
04 10:55 NW 3 10.00 Fair CLR 83.3 74.1 74% 90 29.96 0.0
04 10:35 Calm 10.00 Fair CLR 82.8 75.2 78% 90 29.97 0.0
04 10:15 NW 6 10.00 Fair CLR 82.2 75.6 80% 89 29.97 0.0
04 09:55 Calm 10.00 Fair CLR 80.6 76.6 88% 87 29.96 0.0
04 09:35 W 6 10.00 Fair CLR 79.9 76.6 90% 85 29.96 0.0
04 09:15 W 6 10.00 Partly Cloudy SCT050 78.3 76.8 95% 81 29.96 0.0
04 08:55 W 6 10.00 Mostly Cloudy BKN050 76.6 76.6 100% 77 29.96 0.0
04 08:35 Calm 9.00 Light Rain SCT065 75.9 75.9 100% 75 29.97 0.0
04 08:15 Calm 10.00 A Few Clouds FEW065 74.7 74.7 100% 29.98 0.0
04 07:55 Calm 9.00 Partly Cloudy FEW006 SCT070 74.1 74.1 74.1 72 100% 29.97 0.0 0.01
04 07:35 Calm 9.00 Mostly Cloudy FEW006 BKN050 BKN070 73.8 73.8 100% 29.97 0.0
04 07:15 Calm 8.00 Overcast FEW006 SCT055 OVC090 73.4 73.4 100% 29.97 0.0
04 06:55 W 3 10.00 Mostly Cloudy BKN095 73.2 73.2 100% 29.94 0.0
04 06:35 Calm 10.00 Mostly Cloudy BKN100 72.7 72.7 100% 29.93 0.0
04 06:15 Calm 8.00 Partly Cloudy SCT100 72.1 72.1 100% 29.93 0.0
04 05:55 Calm 9.00 A Few Clouds FEW100 72 72 100% 29.93 0.0
04 05:35 Calm 10.00 A Few Clouds FEW160 72.3 72.3 100% 29.93 0.0
04 05:15 Calm 6.00 Fog/Mist SCT100 OVC160 72 72 100% 29.94 0.0
04 04:55 Calm 8.00 Overcast BKN110 BKN150 OVC170 72 72 100% 29.94 0.0 0.01
04 04:35 Calm 7.00 Overcast FEW110 BKN150 OVC170 72.1 72.1 100% 29.94 0.0
04 04:15 Calm 8.00 Overcast FEW100 OVC150 72.3 72.3 100% 29.93 0.0
04 03:55 Calm 9.00 Overcast OVC140 72.3 72.3 100% 29.93 0.0
04 03:35 SW 5 10.00 Overcast OVC130 72.5 72.5 100% 29.94 0.0
04 03:15 SE 3 10.00 Mostly Cloudy BKN120 72.3 72.3 100% 29.93 0.0
04 02:55 Calm 8.00 Light Rain FEW085 BKN110 BKN150 72.3 72.3 100% 29.93 0.0 0.01
04 02:35 SW 3 9.00 Partly Cloudy SCT160 72.1 72.1 100% 29.93 0.0 0.01
04 02:15 Vrbl 5 8.00 Light Rain SCT090 BKN170 72.1 72.1 100% 29.94 0.0 0.01
04 01:55 SE 8 3.00 Rain Fog/Mist OVC055 72.1 72.1 81.3 72.1 100% 29.98 0.0 0.61 0.61
04 01:35 SE 8 1.75 Heavy Rain Fog/Mist OVC024 72.3 72.3 100% 30.01 0.0 0.53
04 01:15 Vrbl 7 1.00 Heavy Rain Fog/Mist BKN014 BKN023 OVC060 72.5 72.5 100% 30.01 0.0 0.2
04 00:55 Vrbl 6 4.00 Light Rain Fog/Mist BKN060 OVC075 72.7 72.7 100% 29.99 0.0
04 00:35 Calm 8.00 Light Rain OVC070 73 73 100% 29.96 0.0
04 00:15 SE 7 G 24 4.00 Light Rain Fog/Mist SCT060 BKN080 BKN095 OVC120 73.4 73.2 99% 29.95 0.0
03 23:55 SW 23 G 29 8.00 Light Rain and Breezy SCT080 BKN120 78.4 77 95% 82 29.95 0.0
03 23:35 W 13 10.00 Mostly Cloudy SCT080 BKN120 79.9 79.5 99% 87 29.95 0.0
03 23:15 S 3 10.00 Partly Cloudy SCT090 81 79.5 95% 90 29.93 0.0
03 22:55 Calm 10.00 A Few Clouds FEW110 79 79 100% 84 29.94 0.0
03 22:35 Calm 10.00 A Few Clouds FEW110 80.2 79.3 97% 88 29.94 0.0
03 22:15 Calm 10.00 Fair CLR 80.6 79.3 96% 88 29.95 0.0
03 21:55 S 3 9.00 Fair CLR 81 79.5 95% 90 29.94 0.0
03 21:35 S 6 9.00 Fair CLR 80.4 79.2 96% 88 29.95 0.0
03 21:15 Calm 8.00 Fair CLR 78.6 78.6 100% 83 29.96 0.0
03 20:55 Calm 7.00 Fair CLR 78.8 78.8 100% 83 29.97 0.0
03 20:35 Calm 9.00 Fair CLR 79.3 79.3 100% 85 29.97 0.0
03 20:15 Calm 9.00 Fair CLR 81 79.5 95% 90 29.96 0.0
03 19:55 SW 3 10.00 Fair CLR 81.7 80.1 90.3 81.7 95% 92 29.95 0.0
03 19:35 Calm 9.00 Fair CLR 83.5 80.4 91% 96 29.94 0.0
03 19:15 Calm 10.00 Fair CLR 84.6 79.7 85% 98 29.95 0.0
03 18:55 Calm 9.00 Fair CLR 86.7 79.5 79% 102 29.94 0.0
03 18:35 Calm 9.00 Fair CLR 87.8 78.4 74% 102 29.94 0.0
03 18:15 SW 6 10.00 Fair CLR 88.7 77 68% 101 29.94 0.0
03 17:55 SW 6 10.00 Fair CLR 89.4 77 67% 102 29.95 0.0
03 17:35 SW 8 10.00 Fair CLR 89.8 77.4 67% 103 29.95 0.0
03 17:15 Vrbl 6 10.00 Fair CLR 89.8 77.2 67% 103 29.95 0.0
03 16:55 SW 7 10.00 Fair CLR 89.8 76.3 65% 102 29.95 0.0
03 16:35 W 7 10.00 Fair CLR 89.8 78.3 69% 105 29.96 0.0
03 16:15 SW 6 9.00 A Few Clouds FEW250 88.3 79.7 76% 105 29.97 0.0
03 15:55 SW 7 10.00 Mostly Cloudy BKN240 87.8 79 75% 103 29.97 0.0
03 15:35 SW 8 10.00 Overcast BKN230 OVC250 88.2 78.4 73% 102 29.98 0.0
03 15:15 SW 8 10.00 Mostly Cloudy BKN230 89.2 79.2 72% 105 29.98 0.0
03 14:55 SW 8 10.00 Partly Cloudy FEW270 SCT310 89.8 79.2 71% 106 29.98 0.0
03 14:15 W 3 10.00 A Few Clouds FEW280 88.3 78.4 73% 103 30 0.0
03 13:55 W 7 10.00 Partly Cloudy FEW025 SCT290 SCT360 87.1 79.5 87.6 75.6 78% 102 30.01 0.0
03 13:35 W 6 10.00 Partly Cloudy SCT020 SCT340 SCT370 87.6 80.1 78% 104 30.02 0.0
03 13:15 W 5 10.00 Partly Cloudy FEW020 SCT350 86.2 79.9 82% 101 30.03 0.0
03 12:55 Vrbl 5 10.00 A Few Clouds FEW021 86.2 79.7 81% 101 30.02 0.0
03 12:35 Calm 10.00 Partly Cloudy FEW019 SCT290 SCT330 SCT350 85.6 79 81% 99 30.04 0.0
03 12:15 Vrbl 3 10.00 Partly Cloudy SCT018 SCT300 SCT350 85.5 79.3 82% 99 30.05 0.0
03 11:55 SW 6 10.00 Mostly Cloudy BKN018 85.1 79.9 84% 99 30.05 0.0
03 11:35 SW 8 10.00 Mostly Cloudy BKN018 84 79.5 86% 97 30.04 0.0
03 11:15 SW 7 9.00 Mostly Cloudy BKN017 82.9 79 88% 94 30.04 0.0
03 10:55 Vrbl 7 10.00 A Few Clouds FEW014 82.9 79.7 90% 94 30.03 0.0
03 10:35 SE 7 10.00 Partly Cloudy FEW014 SCT020 81.5 79.7 94% 91 30.03 0.0
03 10:15 Vrbl 3 10.00 Overcast SCT009 OVC014 79.3 79 99% 85 30.04 0.0
03 09:55 Calm 9.00 Overcast BKN009 OVC014 78.6 78.6 100% 83 30.05 0.0
03 09:35 Vrbl 3 9.00 Overcast BKN011 OVC018 78.4 78.4 100% 82 30.05 0.0
03 09:15 Calm 10.00 Overcast OVC015 79 78.3 98% 84 30.06 0.0
03 08:55 Calm 10.00 Overcast OVC013 78.6 78.4 99% 83 30.07 0.0
03 08:35 Calm 10.00 Mostly Cloudy BKN012 78.4 78.1 99% 82 30.07 0.0
03 08:15 Calm 10.00 Fair CLR 77.2 77.2 100% 78 30.05 0.0
03 07:55 Calm 10.00 Fair CLR 74.7 74.7 74.7 71.2 100% 30.05 0.0
03 07:35 Calm 10.00 A Few Clouds FEW011 73.9 73.9 100% 30.05 0.0
03 07:15 Calm 10.00 Mostly Cloudy BKN011 73.2 73.2 100% 30.04 0.0
03 06:55 Calm 10.00 Overcast OVC011 71.8 71.8 100% 30.04 0.0
03 06:35 Calm 8.00 Mostly Cloudy BKN011 71.6 71.6 100% 30.04 0.0
03 06:15 Calm 7.00 Fair CLR 71.8 71.8 100% 30.03 0.0
03 05:55 Calm 7.00 Partly Cloudy SCT090 71.8 71.8 100% 30.03 0.0
03 05:35 Calm 8.00 Partly Cloudy SCT090 72 72 100% 30.03 0.0
03 05:15 Calm 7.00 Fair CLR 71.4 71.4 100% 30.02 0.0
03 04:55 Calm 6.00 Fog/Mist FEW090 71.8 71.8 100% 30.02 0.0
03 04:35 Calm 6.00 Fog/Mist FEW015 SCT170 72.1 72.1 100% 30.03 0.0
03 04:15 Calm 10.00 Mostly Cloudy BKN016 72.1 72.1 100% 30.02 0.0
03 03:55 Calm 9.00 Overcast OVC017 72.1 72.1 100% 30.02 0.0
03 03:35 Calm 9.00 Overcast OVC017 72.1 72.1 100% 30.02 0.0
03 03:15 Calm 6.00 Fog/Mist BKN017 BKN080 71.6 71.6 100% 30.02 0.0
03 02:55 Calm 8.00 A Few Clouds FEW080 71.6 71.6 100% 30.02 0.0
03 02:35 Calm 7.00 A Few Clouds FEW090 71.8 71.8 100% 30.02 0.0
03 02:15 Calm 9.00 Mostly Cloudy BKN080 BKN095 72.1 72.1 100% 30.03 0.0
03 01:55 Calm 10.00 Overcast SCT080 OVC095 72.3 72.3 72.5 70.9 100% 30.04 0.0
03 01:35 Calm 10.00 Overcast OVC090 72.5 72.5 100% 30.04 0.0
03 01:15 Calm 9.00 Overcast BKN090 OVC110 72.5 72.5 100% 30.05 0.0
03 00:55 Calm 10.00 Mostly Cloudy BKN100 72.1 72.1 100% 30.04 0.0
03 00:35 Calm 10.00 Mostly Cloudy BKN100 72.3 72.3 100% 30.04 0.0
03 00:15 Calm 10.00 Overcast OVC095 72.3 72.3 100% 30.04 0.0
02 23:55 Calm 10.00 Overcast OVC090 72.3 72.3 100% 30.05 0.0
02 23:35 Calm 10.00 Mostly Cloudy BKN085 72.1 72.1 100% 30.05 0.0
02 23:15 Calm 8.00 A Few Clouds FEW085 71.4 71.4 100% 30.04 0.0
02 22:55 Calm 9.00 Fair CLR 71.2 71.2 100% 30.04 0.0
02 22:35 Calm 8.00 Fair CLR 71.4 71.4 100% 30.04 0.0
02 22:15 Calm 9.00 Fair CLR 71.1 71.1 100% 30.05 0.0
02 21:55 Calm 9.00 Fair CLR 71.1 71.1 100% 30.06 0.0
02 21:35 Calm 10.00 Fair CLR 71.1 71.1 100% 30.06 0.0
02 21:15 Calm 10.00 Fair CLR 71.4 71.4 100% 30.06 0.0
02 20:55 Calm 10.00 Fair CLR 71.4 71.4 100% 30.05 0.0
02 20:35 Calm 8.00 Fair CLR 71.6 71.6 100% 30.04 0.0
02 20:15 Calm 10.00 Fair CLR 71.8 71.8 100% 30.04 0.0
02 19:55 Calm 9.00 Light Rain CLR 72.1 72.1 86 72.1 100% 30.04 0.0
02 19:35 E 3 10.00 A Few Clouds FEW290 72.3 72.3 100% 30.04 0.0
02 19:15 Calm 8.00 A Few Clouds FEW290 72.3 72.3 100% 30.04 0.0
02 18:55 Calm 9.00 A Few Clouds FEW230 73 73 100% 30.04 0.0
02 18:35 Calm 9.00 A Few Clouds FEW200 74.1 73.6 98% 30.04 0.0
02 18:15 SW 5 9.00 Mostly Cloudy SCT180 BKN200 73.9 73.6 99% 30.04 0.0
02 17:55 Calm 10.00 Mostly Cloudy FEW180 BKN230 73.6 73.6 100% 30.04 0.0
02 17:35 S 5 9.00 Partly Cloudy SCT230 74.5 73.6 97% 30.06 0.0
02 17:10 Calm 9.00 A Few Clouds FEW380 74.5 73.9 98% 30.06 0.0
02 16:55 Vrbl 3 10.00 Partly Cloudy FEW250 SCT380 74.5 73.8 98% 30.06 0.0
02 16:35 Calm 9.00 Partly Cloudy FEW200 SCT250 75 73.9 96% 73 30.08 0.0
02 16:15 Calm 9.00 A Few Clouds FEW200 74.3 74.3 100% 30.07 0.0
02 15:55 Vrbl 3 9.00 A Few Clouds FEW170 75.2 75.2 100% 73 30.08 0.0
02 15:35 Calm 9.00 Light Rain FEW170 75.7 75.7 100% 74 30.09 0.0
02 15:15 Calm 10.00 Mostly Cloudy FEW036 BKN085 BKN360 76.5 73.4 90% 77 30.07 0.0
02 14:55 Calm 1.25 Heavy Rain Fog/Mist SCT023 BKN038 OVC049 75.9 74.7 96% 75 30.12 0.0
02 14:35 Calm 10.00 Overcast SCT024 BKN049 BKN060 OVC090 83.5 77.4 82% 93 30.11 0.0
02 14:15 NE 6 10.00 Mostly Cloudy BKN090 85.5 77.2 76% 96 30.1 0.0
02 13:55 Vrbl 3 10.00 Partly Cloudy FEW023 SCT380 85.3 77 85.3 77.7 76% 96 30.09 0.0
02 13:35 Calm 10.00 A Few Clouds FEW023 84.7 77.5 79% 96 30.09 0.0
02 13:15 NE 6 10.00 Fair CLR 84.2 77.2 80% 94 30.09 0.0
02 12:55 Vrbl 5 10.00 A Few Clouds FEW370 83.7 76.5 79% 93 30.08 0.0
02 12:35 Calm 10.00 Fair CLR 84.2 76.8 79% 94 30.08 0.0
02 12:15 Vrbl 3 10.00 Fair CLR 83.5 76.1 79% 92 30.09 0.0
02 11:55 Vrbl 6 10.00 Fair CLR 82.6 76.5 82% 91 30.08 0.0
02 11:35 Vrbl 6 10.00 A Few Clouds FEW018 82.2 76.5 83% 90 30.08 0.0
02 11:15 Vrbl 5 10.00 Fair CLR 82.2 76.8 84% 90 30.08 0.0
02 10:55 Calm 10.00 Fair CLR 82.6 77.5 85% 92 30.08 0.0
02 10:35 Calm 10.00 Fair CLR 82.2 77.2 85% 91 30.08 0.0
02 10:15 Vrbl 5 10.00 Fair CLR 81.5 76.6 85% 89 30.08 0.0
02 09:55 Vrbl 6 10.00 A Few Clouds FEW011 80.4 77 89% 87 30.07 0.0
02 09:35 Vrbl 6 10.00 Partly Cloudy SCT011 79.7 77.2 92% 85 30.07 0.0
02 09:15 Calm 10.00 Partly Cloudy SCT130 SCT160 80.1 77.9 93% 86 30.06 0.0
02 08:55 Calm 10.00 Overcast OVC130 79.2 77.4 94% 84 30.06 0.0
02 08:35 NE 3 7.00 Light Rain BKN130 78.6 77.5 97% 82 30.06 0.0
02 08:15 Calm 6.00 Light Rain Fog/Mist BKN130 BKN160 78.3 77.5 98% 81 30.06 0.0
02 07:55 Calm 10.00 Overcast BKN130 OVC160 77.5 77.2 78.6 74.8 99% 79 30.05 0.0
02 07:35 Calm 9.00 Overcast OVC130 77.2 77.2 100% 78 30.05 0.0
02 07:15 Calm 9.00 Overcast BKN140 OVC160 76.8 76.8 100% 77 30.05 0.0
02 06:55 Calm 9.00 Mostly Cloudy BKN150 75.9 75.9 100% 75 30.04 0.0
02 06:35 Calm 9.00 Partly Cloudy SCT150 75.4 75.4 100% 73 30.04 0.0
02 06:15 Calm 9.00 A Few Clouds FEW160 75.6 75.6 100% 74 30.03 0.0
02 05:55 Calm 9.00 Partly Cloudy SCT160 75.4 75.4 100% 73 30.03 0.0
02 05:35 Calm 10.00 Fair CLR 75.2 75.2 100% 73 30.03 0.0
02 05:15 Calm 9.00 Fair CLR 75 75 100% 72 30.02 0.0
02 04:55 Calm 10.00 Fair CLR 75.6 75.6 100% 74 30.03 0.0
02 04:35 Calm 10.00 Fair CLR 75.7 75.7 100% 74 30.03 0.0
02 04:15 Calm 10.00 Fair CLR 76.3 75.9 99% 76 30.02 0.0
02 03:55 Calm 10.00 Fair CLR 77.4 76.3 96% 79 30.02 0.0
02 03:35 Calm 10.00 Fair CLR 77.9 76.3 95% 80 30.02 0.0
02 03:15 Vrbl 3 10.00 Fair CLR 77.9 76.5 95% 80 30.02 0.0
02 02:55 Calm 10.00 Fair CLR 77.4 75.6 94% 79 30.01 0.0
02 02:35 Calm 10.00 Fair CLR 76.6 75.7 97% 77 30.01 0.0
02 02:15 Calm 10.00 Fair CLR 78.1 75.9 93% 81 30.01 0.0
02 01:55 W 3 10.00 Fair CLR 79.2 76.1 84.9 78.4 90% 83 30.01 0.0
02 01:35 Calm 10.00 Fair CLR 79.3 76.1 90% 84 30.01 0.0
02 01:15 W 3 10.00 Fair CLR 78.6 76.6 94% 82 30.01 0.0
02 00:55 Calm 10.00 Partly Cloudy SCT065 80.2 76.5 88% 86 30.01 0.0
02 00:35 W 5 10.00 Mostly Cloudy BKN065 80.1 77 90% 86 30.01 0.0
02 00:15 Calm 10.00 Mostly Cloudy BKN065 79.9 76.6 90% 85 30.01 0.0
01 23:55 NW 3 10.00 A Few Clouds FEW065 79.7 76.3 89% 85 30 0.0
01 23:35 Calm 10.00 Partly Cloudy SCT065 79.7 76.3 89% 85 29.99 0.0
01 23:15 S 3 10.00 Fair CLR 81.1 75.9 84% 88 29.99 0.0
01 22:55 SW 3 10.00 A Few Clouds FEW065 81.5 76.1 84% 88 29.98 0.0
01 22:35 SW 5 10.00 A Few Clouds FEW065 81.9 76.1 83% 89 29.99 0.0
01 22:15 SW 3 10.00 Fair CLR 81.9 76.6 84% 90 29.99 0.0
01 21:55 S 5 10.00 Fair CLR 82.2 76.6 83% 90 29.98 0.0
01 21:35 S 5 10.00 Fair CLR 82.4 76.3 82% 90 29.98 0.0
Date Time (edt) Wind (mph) Vis. (mi.) Weather Sky Cond. Air Dwpt Max. Min. Relative Humidity Wind Chill (°F) Heat Index (°F) altimeter (in) sea level (mb) 1 hr 3 hr 6 hr
6 hour
Temperature (ºF) Pressure Precipitation (in)